sensor_id;sensor_type;location;lat;lon;timestamp;P1;durP1;ratioP1;P2;durP2;ratioP2
56503;SDS011;48812;51.606;-0.114;2023-03-23T00:00:59;17.45;;;4.72;;
56503;SDS011;48812;51.606;-0.114;2023-03-23T00:03:39;16.45;;;4.78;;
56503;SDS011;48812;51.606;-0.114;2023-03-23T00:06:19;14.82;;;5.32;;
56503;SDS011;48812;51.606;-0.114;2023-03-23T00:08:59;14.32;;;4.43;;
56503;SDS011;48812;51.606;-0.114;2023-03-23T00:11:39;10.95;;;3.97;;
56503;SDS011;48812;51.606;-0.114;2023-03-23T00:14:18;13.45;;;3.92;;
56503;SDS011;48812;51.606;-0.114;2023-03-23T00:16:58;17.30;;;4.45;;
56503;SDS011;48812;51.606;-0.114;2023-03-23T00:19:39;15.75;;;4.45;;
56503;SDS011;48812;51.606;-0.114;2023-03-23T00:22:18;14.70;;;4.32;;
56503;SDS011;48812;51.606;-0.114;2023-03-23T00:24:58;12.98;;;4.40;;
56503;SDS011;48812;51.606;-0.114;2023-03-23T00:27:38;14.85;;;4.65;;
56503;SDS011;48812;51.606;-0.114;2023-03-23T00:30:18;15.27;;;4.30;;
56503;SDS011;48812;51.606;-0.114;2023-03-23T00:32:58;14.32;;;4.25;;
56503;SDS011;48812;51.606;-0.114;2023-03-23T00:35:39;11.50;;;3.58;;
56503;SDS011;48812;51.606;-0.114;2023-03-23T00:38:19;13.00;;;3.30;;
56503;SDS011;48812;51.606;-0.114;2023-03-23T00:41:00;14.57;;;3.80;;
56503;SDS011;48812;51.606;-0.114;2023-03-23T00:43:38;11.50;;;3.20;;
56503;SDS011;48812;51.606;-0.114;2023-03-23T00:46:18;12.05;;;3.90;;
56503;SDS011;48812;51.606;-0.114;2023-03-23T00:48:58;10.98;;;3.40;;
56503;SDS011;48812;51.606;-0.114;2023-03-23T00:51:39;11.35;;;3.25;;
56503;SDS011;48812;51.606;-0.114;2023-03-23T00:54:19;10.85;;;3.58;;
56503;SDS011;48812;51.606;-0.114;2023-03-23T00:56:59;11.02;;;3.60;;
56503;SDS011;48812;51.606;-0.114;2023-03-23T00:59:43;12.57;;;3.75;;
56503;SDS011;48812;51.606;-0.114;2023-03-23T01:02:18;9.25;;;3.20;;
56503;SDS011;48812;51.606;-0.114;2023-03-23T01:04:59;10.27;;;3.35;;
56503;SDS011;48812;51.606;-0.114;2023-03-23T01:07:39;12.32;;;3.25;;
56503;SDS011;48812;51.606;-0.114;2023-03-23T01:10:18;12.15;;;3.63;;
56503;SDS011;48812;51.606;-0.114;2023-03-23T01:12:59;9.82;;;3.20;;
56503;SDS011;48812;51.606;-0.114;2023-03-23T01:15:40;9.82;;;3.05;;
56503;SDS011;48812;51.606;-0.114;2023-03-23T01:18:18;11.55;;;3.65;;
56503;SDS011;48812;51.606;-0.114;2023-03-23T01:21:03;12.90;;;3.03;;
56503;SDS011;48812;51.606;-0.114;2023-03-23T01:23:39;8.93;;;3.08;;
56503;SDS011;48812;51.606;-0.114;2023-03-23T01:26:20;12.02;;;3.40;;
56503;SDS011;48812;51.606;-0.114;2023-03-23T01:28:59;10.88;;;2.95;;
56503;SDS011;48812;51.606;-0.114;2023-03-23T01:31:39;10.38;;;3.10;;
56503;SDS011;48812;51.606;-0.114;2023-03-23T01:34:18;10.98;;;2.90;;
56503;SDS011;48812;51.606;-0.114;2023-03-23T01:36:59;10.65;;;3.05;;
56503;SDS011;48812;51.606;-0.114;2023-03-23T01:39:38;10.25;;;3.45;;
56503;SDS011;48812;51.606;-0.114;2023-03-23T01:42:21;13.15;;;3.55;;
56503;SDS011;48812;51.606;-0.114;2023-03-23T01:48:00;9.13;;;2.92;;
56503;SDS011;48812;51.606;-0.114;2023-03-23T01:53:42;12.52;;;3.10;;
56503;SDS011;48812;51.606;-0.114;2023-03-23T01:56:20;8.75;;;2.88;;
56503;SDS011;48812;51.606;-0.114;2023-03-23T01:58:58;12.30;;;2.88;;
56503;SDS011;48812;51.606;-0.114;2023-03-23T02:01:39;7.63;;;2.88;;
56503;SDS011;48812;51.606;-0.114;2023-03-23T02:04:19;12.80;;;2.78;;
56503;SDS011;48812;51.606;-0.114;2023-03-23T02:06:59;8.35;;;2.50;;
56503;SDS011;48812;51.606;-0.114;2023-03-23T02:09:38;10.25;;;2.97;;
56503;SDS011;48812;51.606;-0.114;2023-03-23T02:12:18;11.00;;;3.00;;
56503;SDS011;48812;51.606;-0.114;2023-03-23T02:14:58;9.43;;;3.13;;
56503;SDS011;48812;51.606;-0.114;2023-03-23T02:17:46;9.18;;;2.60;;
56503;SDS011;48812;51.606;-0.114;2023-03-23T02:23:33;11.32;;;3.53;;
56503;SDS011;48812;51.606;-0.114;2023-03-23T02:26:37;9.18;;;3.15;;
56503;SDS011;48812;51.606;-0.114;2023-03-23T02:35:20;7.70;;;2.67;;
56503;SDS011;48812;51.606;-0.114;2023-03-23T02:38:02;10.20;;;2.88;;
56503;SDS011;48812;51.606;-0.114;2023-03-23T02:40:49;10.30;;;2.97;;
56503;SDS011;48812;51.606;-0.114;2023-03-23T02:43:31;8.77;;;2.97;;
56503;SDS011;48812;51.606;-0.114;2023-03-23T02:46:09;10.20;;;2.63;;
56503;SDS011;48812;51.606;-0.114;2023-03-23T02:48:48;8.65;;;2.50;;
56503;SDS011;48812;51.606;-0.114;2023-03-23T02:51:28;11.38;;;3.55;;
56503;SDS011;48812;51.606;-0.114;2023-03-23T02:54:08;8.82;;;2.53;;
56503;SDS011;48812;51.606;-0.114;2023-03-23T02:56:49;11.43;;;2.78;;
56503;SDS011;48812;51.606;-0.114;2023-03-23T02:59:29;8.80;;;2.58;;
56503;SDS011;48812;51.606;-0.114;2023-03-23T03:02:23;10.18;;;2.90;;
56503;SDS011;48812;51.606;-0.114;2023-03-23T03:10:44;9.85;;;2.50;;
56503;SDS011;48812;51.606;-0.114;2023-03-23T03:13:45;10.25;;;2.83;;
56503;SDS011;48812;51.606;-0.114;2023-03-23T03:22:08;8.90;;;2.58;;
56503;SDS011;48812;51.606;-0.114;2023-03-23T03:24:49;10.52;;;2.85;;
56503;SDS011;48812;51.606;-0.114;2023-03-23T03:27:28;13.20;;;3.03;;
56503;SDS011;48812;51.606;-0.114;2023-03-23T03:30:20;10.15;;;2.75;;
56503;SDS011;48812;51.606;-0.114;2023-03-23T03:32:58;8.60;;;2.53;;
56503;SDS011;48812;51.606;-0.114;2023-03-23T03:35:38;12.35;;;3.10;;
56503;SDS011;48812;51.606;-0.114;2023-03-23T03:38:19;11.18;;;2.72;;
56503;SDS011;48812;51.606;-0.114;2023-03-23T03:40:58;8.82;;;2.78;;
56503;SDS011;48812;51.606;-0.114;2023-03-23T03:43:38;9.90;;;2.65;;
56503;SDS011;48812;51.606;-0.114;2023-03-23T03:46:18;10.02;;;2.92;;
56503;SDS011;48812;51.606;-0.114;2023-03-23T03:48:59;12.75;;;2.78;;
56503;SDS011;48812;51.606;-0.114;2023-03-23T03:51:39;10.93;;;2.78;;
56503;SDS011;48812;51.606;-0.114;2023-03-23T03:54:19;10.63;;;2.72;;
56503;SDS011;48812;51.606;-0.114;2023-03-23T03:56:58;9.68;;;2.40;;
56503;SDS011;48812;51.606;-0.114;2023-03-23T03:59:58;13.23;;;2.85;;
56503;SDS011;48812;51.606;-0.114;2023-03-23T04:02:46;14.18;;;3.10;;
56503;SDS011;48812;51.606;-0.114;2023-03-23T04:08:09;11.18;;;2.50;;
56503;SDS011;48812;51.606;-0.114;2023-03-23T04:10:49;11.30;;;2.63;;
56503;SDS011;48812;51.606;-0.114;2023-03-23T04:13:28;10.73;;;2.75;;
56503;SDS011;48812;51.606;-0.114;2023-03-23T04:16:28;8.80;;;2.42;;
56503;SDS011;48812;51.606;-0.114;2023-03-23T04:19:08;8.80;;;2.50;;
56503;SDS011;48812;51.606;-0.114;2023-03-23T04:21:48;11.18;;;2.58;;
56503;SDS011;48812;51.606;-0.114;2023-03-23T04:24:29;11.88;;;2.53;;
56503;SDS011;48812;51.606;-0.114;2023-03-23T04:27:08;11.30;;;3.00;;
56503;SDS011;48812;51.606;-0.114;2023-03-23T04:29:48;9.77;;;2.72;;
56503;SDS011;48812;51.606;-0.114;2023-03-23T04:32:49;10.02;;;2.67;;
56503;SDS011;48812;51.606;-0.114;2023-03-23T04:35:29;10.18;;;2.92;;
56503;SDS011;48812;51.606;-0.114;2023-03-23T04:38:19;11.80;;;2.72;;
56503;SDS011;48812;51.606;-0.114;2023-03-23T04:41:09;9.05;;;2.53;;
56503;SDS011;48812;51.606;-0.114;2023-03-23T04:43:58;9.70;;;2.50;;
56503;SDS011;48812;51.606;-0.114;2023-03-23T04:46:48;8.57;;;2.50;;
56503;SDS011;48812;51.606;-0.114;2023-03-23T04:49:29;8.63;;;2.63;;
56503;SDS011;48812;51.606;-0.114;2023-03-23T04:52:18;9.35;;;2.78;;
56503;SDS011;48812;51.606;-0.114;2023-03-23T04:54:58;10.48;;;2.35;;
56503;SDS011;48812;51.606;-0.114;2023-03-23T04:57:38;9.13;;;2.70;;
56503;SDS011;48812;51.606;-0.114;2023-03-23T05:00:48;9.55;;;2.83;;
56503;SDS011;48812;51.606;-0.114;2023-03-23T05:03:28;10.75;;;2.47;;
56503;SDS011;48812;51.606;-0.114;2023-03-23T05:06:09;8.25;;;2.38;;
56503;SDS011;48812;51.606;-0.114;2023-03-23T05:08:49;10.30;;;2.35;;
56503;SDS011;48812;51.606;-0.114;2023-03-23T05:11:28;13.10;;;2.78;;
56503;SDS011;48812;51.606;-0.114;2023-03-23T05:14:08;12.43;;;2.80;;
56503;SDS011;48812;51.606;-0.114;2023-03-23T05:16:49;12.07;;;2.80;;
56503;SDS011;48812;51.606;-0.114;2023-03-23T05:19:28;10.80;;;3.00;;
56503;SDS011;48812;51.606;-0.114;2023-03-23T05:22:09;12.90;;;2.80;;
56503;SDS011;48812;51.606;-0.114;2023-03-23T05:24:59;7.35;;;2.53;;
56503;SDS011;48812;51.606;-0.114;2023-03-23T05:27:39;8.60;;;2.35;;
56503;SDS011;48812;51.606;-0.114;2023-03-23T05:30:39;9.23;;;2.63;;
56503;SDS011;48812;51.606;-0.114;2023-03-23T05:33:19;11.40;;;3.13;;
56503;SDS011;48812;51.606;-0.114;2023-03-23T05:36:08;9.80;;;2.65;;
56503;SDS011;48812;51.606;-0.114;2023-03-23T05:38:59;10.02;;;2.50;;
56503;SDS011;48812;51.606;-0.114;2023-03-23T05:41:50;9.13;;;2.80;;
56503;SDS011;48812;51.606;-0.114;2023-03-23T05:44:28;8.02;;;2.17;;
56503;SDS011;48812;51.606;-0.114;2023-03-23T05:47:09;10.23;;;2.90;;
56503;SDS011;48812;51.606;-0.114;2023-03-23T05:49:49;10.60;;;2.90;;
56503;SDS011;48812;51.606;-0.114;2023-03-23T05:52:28;8.85;;;2.67;;
56503;SDS011;48812;51.606;-0.114;2023-03-23T05:55:09;12.18;;;2.75;;
56503;SDS011;48812;51.606;-0.114;2023-03-23T05:57:48;9.88;;;2.55;;
56503;SDS011;48812;51.606;-0.114;2023-03-23T06:00:49;10.98;;;2.70;;
56503;SDS011;48812;51.606;-0.114;2023-03-23T06:03:38;12.15;;;2.72;;
56503;SDS011;48812;51.606;-0.114;2023-03-23T06:06:29;12.20;;;2.58;;
56503;SDS011;48812;51.606;-0.114;2023-03-23T06:09:19;7.78;;;2.17;;
56503;SDS011;48812;51.606;-0.114;2023-03-23T06:12:18;10.40;;;2.88;;
56503;SDS011;48812;51.606;-0.114;2023-03-23T06:15:18;10.13;;;2.70;;
56503;SDS011;48812;51.606;-0.114;2023-03-23T06:18:08;13.30;;;2.78;;
56503;SDS011;48812;51.606;-0.114;2023-03-23T06:20:59;9.02;;;2.70;;
56503;SDS011;48812;51.606;-0.114;2023-03-23T06:23:49;9.70;;;2.47;;
56503;SDS011;48812;51.606;-0.114;2023-03-23T06:26:34;9.35;;;2.50;;
56503;SDS011;48812;51.606;-0.114;2023-03-23T06:29:19;11.75;;;2.70;;
56503;SDS011;48812;51.606;-0.114;2023-03-23T06:31:59;9.05;;;3.08;;
56503;SDS011;48812;51.606;-0.114;2023-03-23T06:34:38;12.10;;;2.67;;
56503;SDS011;48812;51.606;-0.114;2023-03-23T06:37:38;11.55;;;3.00;;
56503;SDS011;48812;51.606;-0.114;2023-03-23T06:40:28;12.50;;;2.88;;
56503;SDS011;48812;51.606;-0.114;2023-03-23T06:43:08;10.40;;;2.53;;
56503;SDS011;48812;51.606;-0.114;2023-03-23T06:45:59;11.35;;;2.80;;
56503;SDS011;48812;51.606;-0.114;2023-03-23T06:48:48;10.07;;;2.58;;
56503;SDS011;48812;51.606;-0.114;2023-03-23T06:51:28;13.82;;;3.47;;
56503;SDS011;48812;51.606;-0.114;2023-03-23T06:54:08;9.48;;;2.58;;
56503;SDS011;48812;51.606;-0.114;2023-03-23T06:56:48;12.38;;;2.85;;
56503;SDS011;48812;51.606;-0.114;2023-03-23T06:59:28;11.95;;;2.40;;
56503;SDS011;48812;51.606;-0.114;2023-03-23T07:02:09;9.30;;;2.35;;
56503;SDS011;48812;51.606;-0.114;2023-03-23T07:04:49;11.18;;;2.65;;
56503;SDS011;48812;51.606;-0.114;2023-03-23T07:07:28;9.80;;;2.40;;
56503;SDS011;48812;51.606;-0.114;2023-03-23T07:10:29;10.38;;;2.20;;
56503;SDS011;48812;51.606;-0.114;2023-03-23T07:13:09;11.02;;;2.85;;
56503;SDS011;48812;51.606;-0.114;2023-03-23T07:15:59;6.93;;;1.80;;
56503;SDS011;48812;51.606;-0.114;2023-03-23T07:18:38;8.75;;;2.50;;
56503;SDS011;48812;51.606;-0.114;2023-03-23T07:21:20;8.98;;;2.47;;
56503;SDS011;48812;51.606;-0.114;2023-03-23T07:23:58;11.15;;;2.90;;
56503;SDS011;48812;51.606;-0.114;2023-03-23T07:27:00;11.70;;;2.72;;
56503;SDS011;48812;51.606;-0.114;2023-03-23T07:29:39;15.68;;;3.00;;
56503;SDS011;48812;51.606;-0.114;2023-03-23T07:32:28;8.23;;;2.35;;
56503;SDS011;48812;51.606;-0.114;2023-03-23T07:35:08;11.48;;;2.38;;
56503;SDS011;48812;51.606;-0.114;2023-03-23T07:38:08;9.23;;;2.20;;
56503;SDS011;48812;51.606;-0.114;2023-03-23T07:40:49;11.52;;;2.63;;
56503;SDS011;48812;51.606;-0.114;2023-03-23T07:43:28;9.68;;;2.45;;
56503;SDS011;48812;51.606;-0.114;2023-03-23T07:46:18;11.40;;;2.45;;
56503;SDS011;48812;51.606;-0.114;2023-03-23T07:49:19;11.30;;;2.60;;
56503;SDS011;48812;51.606;-0.114;2023-03-23T07:52:09;9.20;;;2.40;;
56503;SDS011;48812;51.606;-0.114;2023-03-23T07:54:49;7.75;;;2.30;;
56503;SDS011;48812;51.606;-0.114;2023-03-23T07:57:38;9.50;;;2.45;;
56503;SDS011;48812;51.606;-0.114;2023-03-23T08:00:19;11.80;;;2.08;;
56503;SDS011;48812;51.606;-0.114;2023-03-23T08:02:58;15.75;;;2.92;;
56503;SDS011;48812;51.606;-0.114;2023-03-23T08:05:49;12.52;;;2.80;;
56503;SDS011;48812;51.606;-0.114;2023-03-23T08:08:38;10.52;;;2.55;;
56503;SDS011;48812;51.606;-0.114;2023-03-23T08:11:39;19.35;;;2.60;;
56503;SDS011;48812;51.606;-0.114;2023-03-23T08:14:49;12.43;;;2.50;;
56503;SDS011;48812;51.606;-0.114;2023-03-23T08:17:49;12.57;;;2.72;;
56503;SDS011;48812;51.606;-0.114;2023-03-23T08:20:49;13.05;;;2.50;;
56503;SDS011;48812;51.606;-0.114;2023-03-23T08:23:28;13.88;;;2.92;;
56503;SDS011;48812;51.606;-0.114;2023-03-23T08:26:19;14.68;;;3.05;;
56503;SDS011;48812;51.606;-0.114;2023-03-23T08:28:59;12.27;;;2.80;;
56503;SDS011;48812;51.606;-0.114;2023-03-23T08:31:48;11.02;;;3.20;;
56503;SDS011;48812;51.606;-0.114;2023-03-23T08:34:49;11.52;;;3.13;;
56503;SDS011;48812;51.606;-0.114;2023-03-23T08:37:49;11.50;;;3.08;;
56503;SDS011;48812;51.606;-0.114;2023-03-23T08:40:38;11.65;;;3.15;;
56503;SDS011;48812;51.606;-0.114;2023-03-23T08:43:18;16.08;;;2.83;;
56503;SDS011;48812;51.606;-0.114;2023-03-23T08:46:18;18.20;;;3.25;;
56503;SDS011;48812;51.606;-0.114;2023-03-23T08:49:08;15.23;;;2.72;;
56503;SDS011;48812;51.606;-0.114;2023-03-23T08:52:09;9.70;;;2.78;;
56503;SDS011;48812;51.606;-0.114;2023-03-23T08:55:09;13.95;;;2.95;;
56503;SDS011;48812;51.606;-0.114;2023-03-23T08:57:59;13.63;;;3.08;;
56503;SDS011;48812;51.606;-0.114;2023-03-23T09:00:48;10.05;;;2.47;;
56503;SDS011;48812;51.606;-0.114;2023-03-23T09:03:39;15.18;;;2.75;;
56503;SDS011;48812;51.606;-0.114;2023-03-23T09:06:39;16.63;;;3.35;;
56503;SDS011;48812;51.606;-0.114;2023-03-23T09:09:19;12.43;;;2.38;;
56503;SDS011;48812;51.606;-0.114;2023-03-23T09:11:59;11.23;;;2.72;;
56503;SDS011;48812;51.606;-0.114;2023-03-23T09:14:38;15.75;;;3.17;;
56503;SDS011;48812;51.606;-0.114;2023-03-23T09:17:18;13.40;;;3.10;;
56503;SDS011;48812;51.606;-0.114;2023-03-23T09:19:59;13.13;;;3.13;;
56503;SDS011;48812;51.606;-0.114;2023-03-23T09:22:43;10.95;;;2.55;;
56503;SDS011;48812;51.606;-0.114;2023-03-23T09:25:19;10.88;;;2.88;;
56503;SDS011;48812;51.606;-0.114;2023-03-23T09:27:58;14.40;;;2.95;;
56503;SDS011;48812;51.606;-0.114;2023-03-23T09:30:39;10.52;;;2.58;;
56503;SDS011;48812;51.606;-0.114;2023-03-23T09:33:18;9.93;;;2.80;;
56503;SDS011;48812;51.606;-0.114;2023-03-23T09:35:59;9.63;;;2.70;;
56503;SDS011;48812;51.606;-0.114;2023-03-23T09:38:39;10.68;;;2.50;;
56503;SDS011;48812;51.606;-0.114;2023-03-23T09:41:35;8.65;;;2.40;;
56503;SDS011;48812;51.606;-0.114;2023-03-23T09:50:00;12.43;;;2.47;;
56503;SDS011;48812;51.606;-0.114;2023-03-23T09:52:54;12.95;;;3.22;;
56503;SDS011;48812;51.606;-0.114;2023-03-23T09:55:38;7.80;;;2.65;;
56503;SDS011;48812;51.606;-0.114;2023-03-23T09:58:24;12.60;;;3.20;;
56503;SDS011;48812;51.606;-0.114;2023-03-23T10:01:26;10.20;;;2.60;;
56503;SDS011;48812;51.606;-0.114;2023-03-23T10:04:43;8.80;;;2.22;;
56503;SDS011;48812;51.606;-0.114;2023-03-23T10:07:28;9.38;;;2.55;;
56503;SDS011;48812;51.606;-0.114;2023-03-23T10:10:12;9.20;;;2.70;;
56503;SDS011;48812;51.606;-0.114;2023-03-23T10:12:50;10.52;;;2.72;;
56503;SDS011;48812;51.606;-0.114;2023-03-23T10:15:33;14.35;;;2.70;;
56503;SDS011;48812;51.606;-0.114;2023-03-23T10:18:14;10.52;;;2.80;;
56503;SDS011;48812;51.606;-0.114;2023-03-23T10:21:19;9.27;;;2.53;;
56503;SDS011;48812;51.606;-0.114;2023-03-23T10:27:01;9.52;;;2.85;;
56503;SDS011;48812;51.606;-0.114;2023-03-23T10:29:50;10.95;;;2.85;;
56503;SDS011;48812;51.606;-0.114;2023-03-23T10:32:42;9.85;;;2.80;;
56503;SDS011;48812;51.606;-0.114;2023-03-23T10:35:31;7.80;;;2.20;;
56503;SDS011;48812;51.606;-0.114;2023-03-23T10:38:14;11.02;;;2.60;;
56503;SDS011;48812;51.606;-0.114;2023-03-23T10:41:00;8.57;;;2.42;;
56503;SDS011;48812;51.606;-0.114;2023-03-23T10:43:39;10.65;;;2.80;;
56503;SDS011;48812;51.606;-0.114;2023-03-23T10:49:10;12.45;;;2.65;;
56503;SDS011;48812;51.606;-0.114;2023-03-23T10:52:04;9.32;;;2.25;;
56503;SDS011;48812;51.606;-0.114;2023-03-23T10:54:45;9.32;;;2.10;;
56503;SDS011;48812;51.606;-0.114;2023-03-23T10:57:29;8.68;;;2.13;;
56503;SDS011;48812;51.606;-0.114;2023-03-23T11:00:22;9.07;;;2.38;;
56503;SDS011;48812;51.606;-0.114;2023-03-23T11:03:00;10.82;;;2.33;;
56503;SDS011;48812;51.606;-0.114;2023-03-23T11:05:43;12.20;;;2.47;;
56503;SDS011;48812;51.606;-0.114;2023-03-23T11:08:19;10.23;;;2.60;;
56503;SDS011;48812;51.606;-0.114;2023-03-23T11:11:14;9.80;;;2.53;;
56503;SDS011;48812;51.606;-0.114;2023-03-23T11:14:00;11.30;;;2.67;;
56503;SDS011;48812;51.606;-0.114;2023-03-23T11:16:42;11.55;;;2.60;;
56503;SDS011;48812;51.606;-0.114;2023-03-23T11:19:26;9.23;;;2.60;;
56503;SDS011;48812;51.606;-0.114;2023-03-23T11:22:08;9.18;;;2.13;;
56503;SDS011;48812;51.606;-0.114;2023-03-23T11:24:59;9.20;;;2.55;;
56503;SDS011;48812;51.606;-0.114;2023-03-23T11:27:38;9.32;;;2.80;;
56503;SDS011;48812;51.606;-0.114;2023-03-23T11:32:59;7.85;;;2.00;;
56503;SDS011;48812;51.606;-0.114;2023-03-23T11:35:38;7.45;;;2.17;;
56503;SDS011;48812;51.606;-0.114;2023-03-23T11:38:20;8.65;;;2.47;;
56503;SDS011;48812;51.606;-0.114;2023-03-23T11:40:59;7.47;;;2.13;;
56503;SDS011;48812;51.606;-0.114;2023-03-23T11:43:40;7.63;;;1.73;;
56503;SDS011;48812;51.606;-0.114;2023-03-23T11:49:03;8.05;;;2.40;;
56503;SDS011;48812;51.606;-0.114;2023-03-23T11:51:50;6.88;;;2.10;;
56503;SDS011;48812;51.606;-0.114;2023-03-23T11:54:33;8.00;;;2.50;;
56503;SDS011;48812;51.606;-0.114;2023-03-23T11:57:09;9.43;;;2.63;;
56503;SDS011;48812;51.606;-0.114;2023-03-23T11:59:49;8.50;;;2.25;;
56503;SDS011;48812;51.606;-0.114;2023-03-23T12:05:51;8.95;;;2.33;;
56503;SDS011;48812;51.606;-0.114;2023-03-23T12:26:30;7.30;;;2.08;;
56503;SDS011;48812;51.606;-0.114;2023-03-23T12:52:32;7.22;;;2.15;;
56503;SDS011;48812;51.606;-0.114;2023-03-23T12:55:31;7.40;;;2.17;;
56503;SDS011;48812;51.606;-0.114;2023-03-23T12:58:09;8.27;;;2.28;;
56503;SDS011;48812;51.606;-0.114;2023-03-23T13:00:52;6.70;;;2.03;;
56503;SDS011;48812;51.606;-0.114;2023-03-23T13:06:39;7.50;;;2.45;;
56503;SDS011;48812;51.606;-0.114;2023-03-23T13:09:20;5.82;;;2.08;;
56503;SDS011;48812;51.606;-0.114;2023-03-23T13:11:59;6.28;;;1.75;;
56503;SDS011;48812;51.606;-0.114;2023-03-23T13:14:47;5.45;;;2.30;;
56503;SDS011;48812;51.606;-0.114;2023-03-23T13:23:17;7.43;;;2.17;;
56503;SDS011;48812;51.606;-0.114;2023-03-23T13:26:08;5.90;;;2.05;;
56503;SDS011;48812;51.606;-0.114;2023-03-23T13:28:59;8.35;;;2.13;;
56503;SDS011;48812;51.606;-0.114;2023-03-23T13:31:38;5.60;;;1.90;;
56503;SDS011;48812;51.606;-0.114;2023-03-23T13:34:26;10.07;;;2.38;;
56503;SDS011;48812;51.606;-0.114;2023-03-23T13:39:56;6.93;;;2.08;;
56503;SDS011;48812;51.606;-0.114;2023-03-23T13:42:49;7.60;;;1.85;;
56503;SDS011;48812;51.606;-0.114;2023-03-23T13:53:30;7.60;;;2.35;;
56503;SDS011;48812;51.606;-0.114;2023-03-23T13:58:50;8.13;;;2.30;;
56503;SDS011;48812;51.606;-0.114;2023-03-23T14:01:33;7.10;;;2.22;;
56503;SDS011;48812;51.606;-0.114;2023-03-23T14:04:19;9.68;;;2.53;;
56503;SDS011;48812;51.606;-0.114;2023-03-23T14:07:08;9.20;;;2.13;;
56503;SDS011;48812;51.606;-0.114;2023-03-23T14:09:48;7.38;;;2.00;;
56503;SDS011;48812;51.606;-0.114;2023-03-23T14:12:28;7.43;;;1.80;;
56503;SDS011;48812;51.606;-0.114;2023-03-23T14:15:12;8.20;;;2.30;;
56503;SDS011;48812;51.606;-0.114;2023-03-23T14:17:52;6.28;;;1.98;;
56503;SDS011;48812;51.606;-0.114;2023-03-23T14:20:33;7.72;;;2.20;;
56503;SDS011;48812;51.606;-0.114;2023-03-23T14:23:14;7.90;;;2.25;;
56503;SDS011;48812;51.606;-0.114;2023-03-23T14:25:56;7.97;;;2.17;;
56503;SDS011;48812;51.606;-0.114;2023-03-23T14:28:52;6.93;;;2.30;;
56503;SDS011;48812;51.606;-0.114;2023-03-23T14:31:28;8.68;;;2.58;;
56503;SDS011;48812;51.606;-0.114;2023-03-23T14:34:16;7.05;;;2.20;;
56503;SDS011;48812;51.606;-0.114;2023-03-23T14:36:59;7.28;;;2.50;;
56503;SDS011;48812;51.606;-0.114;2023-03-23T14:39:38;8.10;;;2.03;;
56503;SDS011;48812;51.606;-0.114;2023-03-23T14:42:21;8.65;;;2.22;;
56503;SDS011;48812;51.606;-0.114;2023-03-23T14:45:16;8.60;;;2.50;;
56503;SDS011;48812;51.606;-0.114;2023-03-23T14:47:54;6.68;;;2.08;;
56503;SDS011;48812;51.606;-0.114;2023-03-23T14:50:40;8.10;;;2.33;;
56503;SDS011;48812;51.606;-0.114;2023-03-23T14:53:26;7.47;;;2.50;;
56503;SDS011;48812;51.606;-0.114;2023-03-23T14:56:11;7.72;;;2.10;;
56503;SDS011;48812;51.606;-0.114;2023-03-23T14:58:49;7.05;;;2.17;;
56503;SDS011;48812;51.606;-0.114;2023-03-23T15:01:29;7.80;;;2.15;;
56503;SDS011;48812;51.606;-0.114;2023-03-23T15:04:13;8.90;;;2.50;;
56503;SDS011;48812;51.606;-0.114;2023-03-23T15:06:50;7.30;;;2.03;;
56503;SDS011;48812;51.606;-0.114;2023-03-23T15:09:29;7.53;;;2.95;;
56503;SDS011;48812;51.606;-0.114;2023-03-23T15:12:12;7.95;;;2.20;;
56503;SDS011;48812;51.606;-0.114;2023-03-23T15:15:00;6.78;;;1.80;;
56503;SDS011;48812;51.606;-0.114;2023-03-23T15:17:38;8.25;;;2.20;;
56503;SDS011;48812;51.606;-0.114;2023-03-23T15:23:05;7.72;;;2.53;;
56503;SDS011;48812;51.606;-0.114;2023-03-23T15:25:38;8.10;;;2.33;;
56503;SDS011;48812;51.606;-0.114;2023-03-23T15:28:20;8.40;;;2.17;;
56503;SDS011;48812;51.606;-0.114;2023-03-23T15:31:02;6.35;;;2.30;;
56503;SDS011;48812;51.606;-0.114;2023-03-23T15:33:40;8.45;;;2.55;;
56503;SDS011;48812;51.606;-0.114;2023-03-23T15:36:18;8.10;;;2.22;;
56503;SDS011;48812;51.606;-0.114;2023-03-23T15:38:59;8.05;;;2.42;;
56503;SDS011;48812;51.606;-0.114;2023-03-23T15:41:50;7.82;;;2.40;;
56503;SDS011;48812;51.606;-0.114;2023-03-23T15:44:32;7.38;;;2.53;;
56503;SDS011;48812;51.606;-0.114;2023-03-23T15:47:13;5.47;;;2.20;;
56503;SDS011;48812;51.606;-0.114;2023-03-23T15:49:58;7.55;;;2.15;;
56503;SDS011;48812;51.606;-0.114;2023-03-23T15:52:39;9.18;;;2.40;;
56503;SDS011;48812;51.606;-0.114;2023-03-23T15:57:58;7.28;;;2.15;;
56503;SDS011;48812;51.606;-0.114;2023-03-23T16:00:39;9.60;;;2.38;;
56503;SDS011;48812;51.606;-0.114;2023-03-23T16:03:32;7.90;;;2.10;;
56503;SDS011;48812;51.606;-0.114;2023-03-23T16:06:19;9.35;;;2.25;;
56503;SDS011;48812;51.606;-0.114;2023-03-23T16:08:59;8.15;;;2.40;;
56503;SDS011;48812;51.606;-0.114;2023-03-23T16:11:38;6.93;;;2.03;;
56503;SDS011;48812;51.606;-0.114;2023-03-23T16:14:18;9.30;;;2.58;;
56503;SDS011;48812;51.606;-0.114;2023-03-23T16:16:59;6.95;;;2.05;;
56503;SDS011;48812;51.606;-0.114;2023-03-23T16:19:38;6.07;;;2.28;;
56503;SDS011;48812;51.606;-0.114;2023-03-23T16:22:19;6.50;;;2.13;;
56503;SDS011;48812;51.606;-0.114;2023-03-23T16:25:00;8.23;;;2.40;;
56503;SDS011;48812;51.606;-0.114;2023-03-23T16:27:39;9.52;;;2.60;;
56503;SDS011;48812;51.606;-0.114;2023-03-23T16:30:20;7.68;;;2.40;;
56503;SDS011;48812;51.606;-0.114;2023-03-23T16:32:58;8.55;;;2.67;;
56503;SDS011;48812;51.606;-0.114;2023-03-23T16:35:39;10.13;;;2.95;;
56503;SDS011;48812;51.606;-0.114;2023-03-23T16:38:18;10.85;;;2.70;;
56503;SDS011;48812;51.606;-0.114;2023-03-23T16:40:58;7.68;;;2.42;;
56503;SDS011;48812;51.606;-0.114;2023-03-23T16:43:38;7.57;;;2.28;;
56503;SDS011;48812;51.606;-0.114;2023-03-23T16:46:18;8.35;;;2.83;;
56503;SDS011;48812;51.606;-0.114;2023-03-23T16:49:00;8.60;;;2.50;;
56503;SDS011;48812;51.606;-0.114;2023-03-23T16:51:38;8.88;;;2.55;;
56503;SDS011;48812;51.606;-0.114;2023-03-23T16:54:18;6.97;;;2.20;;
56503;SDS011;48812;51.606;-0.114;2023-03-23T16:56:58;7.40;;;2.53;;
56503;SDS011;48812;51.606;-0.114;2023-03-23T16:59:38;12.18;;;2.97;;
56503;SDS011;48812;51.606;-0.114;2023-03-23T17:02:18;11.98;;;2.78;;
56503;SDS011;48812;51.606;-0.114;2023-03-23T17:04:59;7.13;;;2.22;;
56503;SDS011;48812;51.606;-0.114;2023-03-23T17:07:39;10.88;;;2.70;;
56503;SDS011;48812;51.606;-0.114;2023-03-23T17:10:19;12.52;;;2.45;;
56503;SDS011;48812;51.606;-0.114;2023-03-23T17:12:58;11.13;;;2.65;;
56503;SDS011;48812;51.606;-0.114;2023-03-23T17:15:39;12.27;;;2.70;;
56503;SDS011;48812;51.606;-0.114;2023-03-23T17:18:19;14.90;;;2.70;;
56503;SDS011;48812;51.606;-0.114;2023-03-23T17:20:58;13.52;;;2.45;;
56503;SDS011;48812;51.606;-0.114;2023-03-23T17:23:38;12.93;;;2.65;;
56503;SDS011;48812;51.606;-0.114;2023-03-23T17:26:18;11.73;;;2.65;;
56503;SDS011;48812;51.606;-0.114;2023-03-23T17:28:58;14.80;;;2.90;;
56503;SDS011;48812;51.606;-0.114;2023-03-23T17:31:39;10.73;;;2.85;;
56503;SDS011;48812;51.606;-0.114;2023-03-23T17:34:18;14.90;;;3.00;;
56503;SDS011;48812;51.606;-0.114;2023-03-23T17:36:58;13.82;;;2.60;;
56503;SDS011;48812;51.606;-0.114;2023-03-23T17:39:39;12.63;;;2.72;;
56503;SDS011;48812;51.606;-0.114;2023-03-23T17:42:18;22.92;;;2.85;;
56503;SDS011;48812;51.606;-0.114;2023-03-23T17:44:58;11.20;;;2.90;;
56503;SDS011;48812;51.606;-0.114;2023-03-23T17:47:39;8.18;;;2.20;;
56503;SDS011;48812;51.606;-0.114;2023-03-23T17:50:19;13.82;;;2.38;;
56503;SDS011;48812;51.606;-0.114;2023-03-23T17:52:59;11.13;;;2.97;;
56503;SDS011;48812;51.606;-0.114;2023-03-23T17:55:40;8.15;;;2.40;;
56503;SDS011;48812;51.606;-0.114;2023-03-23T17:58:19;12.07;;;2.40;;
56503;SDS011;48812;51.606;-0.114;2023-03-23T18:00:58;12.88;;;2.80;;
56503;SDS011;48812;51.606;-0.114;2023-03-23T18:03:38;11.70;;;2.67;;